Station Historical Data
Daily Summary for July 8, 2017 Units:  English    Metric   Both
« Previous Day
Next Day »
Daily Weekly Monthly Yearly Custom
  High: Low: Average:
Temperature: 78.5 °F 64.0 °F 71.2 °F
Dew Point: 67.9 °F 48.2 °F 58.3 °F
Humidity: 89% 40% 66%
Wind Speed: 11.0mph 0.0mph 3.9mph
Wind Gust: 21.0mph - -
Wind- - WNW
Pressure: 29.92 in 29.67 in -
Precipitation: 0.00 in    
Historical Graphs
 
 
Tabular Data for July 8, 2017
Time Temperature Dew Point Pressure Wind Wind Speed Wind Gust Humidity Rainfall Rate (Hourly)
00:04 72.2 °F 67.8 °F 29.70 in WSW 6.0 mph 8.0 mph 86% 0.00 in
00:09 72.3 °F 67.9 °F 29.70 in SW 3.0 mph 9.0 mph 86% 0.00 in
00:14 72.2 °F 67.8 °F 29.70 in South 2.0 mph 8.0 mph 86% 0.00 in
00:19 72.1 °F 67.7 °F 29.69 in West 5.0 mph 6.0 mph 86% 0.00 in
00:24 72.1 °F 67.3 °F 29.69 in West 4.0 mph 6.0 mph 85% 0.00 in
00:29 72.0 °F 67.2 °F 29.69 in WSW 4.0 mph 8.0 mph 85% 0.00 in
00:34 71.9 °F 67.1 °F 29.69 in WSW 4.0 mph 8.0 mph 85% 0.00 in
00:39 71.8 °F 67.0 °F 29.69 in WSW 3.0 mph 8.0 mph 85% 0.00 in
00:44 71.7 °F 66.9 °F 29.69 in SW 1.0 mph 6.0 mph 85% 0.00 in
00:49 71.6 °F 67.2 °F 29.68 in SW 6.0 mph 6.0 mph 86% 0.00 in
00:54 71.7 °F 67.3 °F 29.68 in SSW 3.0 mph 7.0 mph 86% 0.00 in
00:59 71.8 °F 67.4 °F 29.68 in SSW 3.0 mph 10.0 mph 86% 0.00 in
01:04 71.8 °F 67.4 °F 29.68 in SSW 3.0 mph 10.0 mph 86% 0.00 in
01:09 71.8 °F 67.4 °F 29.68 in SW 4.0 mph 7.0 mph 86% 0.00 in
01:14 71.7 °F 67.3 °F 29.67 in SW 4.0 mph 12.0 mph 86% 0.00 in
01:19 71.7 °F 67.3 °F 29.67 in SW 8.0 mph 11.0 mph 86% 0.00 in
01:24 71.7 °F 67.3 °F 29.67 in WSW 5.0 mph 15.0 mph 86% 0.00 in
01:29 71.2 °F 65.4 °F 29.68 in WSW 6.0 mph 15.0 mph 82% 0.00 in
01:34 69.2 °F 63.8 °F 29.68 in NNW 5.0 mph 12.0 mph 83% 0.00 in
01:39 68.1 °F 63.8 °F 29.68 in North 3.0 mph 12.0 mph 86% 0.00 in
01:44 67.6 °F 63.6 °F 29.69 in Calm   2.0 mph 87% 0.00 in
01:49 67.6 °F 63.6 °F 29.69 in Calm     87% 0.00 in
01:54 67.6 °F 63.9 °F 29.68 in Calm     88% 0.00 in
01:59 67.8 °F 64.1 °F 29.68 in Calm   3.0 mph 88% 0.00 in
02:04 68.5 °F 64.8 °F 29.68 in SW 1.0 mph 5.0 mph 88% 0.00 in
02:09 69.2 °F 65.8 °F 29.68 in West 6.0 mph 7.0 mph 89% 0.00 in
02:14 70.2 °F 66.8 °F 29.68 in West 5.0 mph 12.0 mph 89% 0.00 in
02:19 70.6 °F 66.9 °F 29.68 in WSW 6.0 mph 12.0 mph 88% 0.00 in
02:24 70.8 °F 66.7 °F 29.68 in WSW 5.0 mph 12.0 mph 87% 0.00 in
02:29 70.8 °F 66.4 °F 29.68 in WSW 6.0 mph 15.0 mph 86% 0.00 in
02:34 70.6 °F 66.2 °F 29.68 in WSW 6.0 mph 15.0 mph 86% 0.00 in
02:39 70.6 °F 66.2 °F 29.67 in WSW 6.0 mph 14.0 mph 86% 0.00 in
02:44 70.5 °F 66.1 °F 29.67 in WSW 6.0 mph 14.0 mph 86% 0.00 in
02:49 70.4 °F 66.0 °F 29.67 in WSW 6.0 mph 11.0 mph 86% 0.00 in
02:54 70.4 °F 66.0 °F 29.68 in WSW 2.0 mph 14.0 mph 86% 0.00 in
02:59 70.4 °F 66.0 °F 29.68 in West 11.0 mph 14.0 mph 86% 0.00 in
03:04 70.5 °F 66.1 °F 29.68 in WSW 8.0 mph 10.0 mph 86% 0.00 in
03:09 70.6 °F 66.5 °F 29.68 in SW 3.0 mph 11.0 mph 87% 0.00 in
03:14 70.7 °F 66.6 °F 29.67 in WSW 6.0 mph 10.0 mph 87% 0.00 in
03:19 70.7 °F 66.6 °F 29.67 in WSW 6.0 mph 16.0 mph 87% 0.00 in
03:24 70.6 °F 66.5 °F 29.67 in WSW 5.0 mph 16.0 mph 87% 0.00 in
03:29 70.6 °F 66.5 °F 29.67 in WSW 5.0 mph 12.0 mph 87% 0.00 in
03:34 70.5 °F 66.4 °F 29.67 in WSW 5.0 mph 12.0 mph 87% 0.00 in
03:39 70.5 °F 66.4 °F 29.67 in WSW 5.0 mph 13.0 mph 87% 0.00 in
03:44 70.6 °F 66.5 °F 29.67 in WSW 6.0 mph 13.0 mph 87% 0.00 in
03:49 70.5 °F 66.4 °F 29.67 in WNW 5.0 mph 12.0 mph 87% 0.00 in
03:54 70.4 °F 66.3 °F 29.67 in West 5.0 mph 12.0 mph 87% 0.00 in
03:59 70.3 °F 66.2 °F 29.67 in West 5.0 mph 12.0 mph 87% 0.00 in
04:04 70.4 °F 66.3 °F 29.67 in West 4.0 mph 9.0 mph 87% 0.00 in
04:09 70.3 °F 65.9 °F 29.67 in West 3.0 mph 10.0 mph 86% 0.00 in
04:14 70.3 °F 65.9 °F 29.67 in West 3.0 mph 10.0 mph 86% 0.00 in
04:19 70.3 °F 65.9 °F 29.67 in WSW 4.0 mph 10.0 mph 86% 0.00 in
04:24 70.2 °F 65.8 °F 29.67 in West 4.0 mph 10.0 mph 86% 0.00 in
04:29 70.1 °F 65.7 °F 29.67 in West 3.0 mph 6.0 mph 86% 0.00 in
04:34 69.9 °F 65.9 °F 29.67 in West 3.0 mph 5.0 mph 87% 0.00 in
04:39 69.9 °F 65.9 °F 29.67 in West 1.0 mph 7.0 mph 87% 0.00 in
04:44 69.9 °F 65.9 °F 29.67 in WSW 4.0 mph 8.0 mph 87% 0.00 in
04:49 69.9 °F 65.9 °F 29.67 in West 4.0 mph 6.0 mph 87% 0.00 in
04:54 69.9 °F 65.9 °F 29.67 in West 3.0 mph 7.0 mph 87% 0.00 in
04:59 69.8 °F 65.8 °F 29.67 in West 4.0 mph 8.0 mph 87% 0.00 in
05:04 69.7 °F 65.7 °F 29.68 in WNW 5.0 mph 8.0 mph 87% 0.00 in
05:09 69.6 °F 65.9 °F 29.68 in WNW 4.0 mph 7.0 mph 88% 0.00 in
05:14 69.4 °F 65.7 °F 29.68 in West 4.0 mph 9.0 mph 88% 0.00 in
05:19 69.1 °F 65.1 °F 29.68 in WNW 2.0 mph 9.0 mph 87% 0.00 in
05:24 69.0 °F 64.6 °F 29.67 in WNW 4.0 mph 9.0 mph 86% 0.00 in
05:29 68.8 °F 64.4 °F 29.68 in WNW 4.0 mph 7.0 mph 86% 0.00 in
05:34 68.7 °F 64.3 °F 29.68 in WNW 1.0 mph 7.0 mph 86% 0.00 in
05:39 68.5 °F 64.1 °F 29.69 in West 2.0 mph 5.0 mph 86% 0.00 in
05:44 68.3 °F 63.9 °F 29.69 in NW 3.0 mph 5.0 mph 86% 0.00 in
05:49 68.1 °F 63.4 °F 29.69 in NW 3.0 mph 7.0 mph 85% 0.00 in
05:54 67.8 °F 62.8 °F 29.69 in WNW 3.0 mph 7.0 mph 84% 0.00 in
05:59 67.7 °F 62.7 °F 29.69 in NW 3.0 mph 6.0 mph 84% 0.00 in
06:04 67.6 °F 62.6 °F 29.70 in NW 2.0 mph 6.0 mph 84% 0.00 in
06:09 67.6 °F 62.6 °F 29.70 in NW 2.0 mph 5.0 mph 84% 0.00 in
06:14 67.6 °F 62.9 °F 29.70 in WNW 4.0 mph 4.0 mph 85% 0.00 in
06:19 67.5 °F 62.8 °F 29.69 in WNW 1.0 mph 5.0 mph 85% 0.00 in
06:24 67.4 °F 62.7 °F 29.69 in WNW 1.0 mph 5.0 mph 85% 0.00 in
06:29 67.4 °F 63.1 °F 29.70 in NW 5.0 mph 7.0 mph 86% 0.00 in
06:34 67.4 °F 63.1 °F 29.70 in WNW 3.0 mph 7.0 mph 86% 0.00 in
06:39 67.1 °F 62.8 °F 29.70 in North 4.0 mph 7.0 mph 86% 0.00 in
06:44 66.9 °F 62.6 °F 29.70 in West 1.0 mph 10.0 mph 86% 0.00 in
06:49 66.8 °F 62.5 °F 29.71 in NW 8.0 mph 11.0 mph 86% 0.00 in
06:54 66.6 °F 62.3 °F 29.71 in WNW 4.0 mph 11.0 mph 86% 0.00 in
06:59 66.6 °F 62.3 °F 29.71 in WNW 5.0 mph 9.0 mph 86% 0.00 in
07:04 66.6 °F 62.6 °F 29.71 in WNW 4.0 mph 9.0 mph 87% 0.00 in
07:09 66.6 °F 62.6 °F 29.72 in NW 3.0 mph 9.0 mph 87% 0.00 in
07:14 66.6 °F 62.6 °F 29.72 in NW 4.0 mph 10.0 mph 87% 0.00 in
07:19 66.5 °F 62.5 °F 29.72 in NW 4.0 mph 10.0 mph 87% 0.00 in
07:24 66.5 °F 62.5 °F 29.73 in NW 3.0 mph 8.0 mph 87% 0.00 in
07:29 66.5 °F 62.2 °F 29.73 in NW 3.0 mph 10.0 mph 86% 0.00 in
07:34 66.4 °F 62.1 °F 29.73 in NW 7.0 mph 10.0 mph 86% 0.00 in
07:39 66.5 °F 62.2 °F 29.73 in WNW 3.0 mph 12.0 mph 86% 0.00 in
07:44 66.5 °F 62.2 °F 29.73 in NW 4.0 mph 9.0 mph 86% 0.00 in
07:49 66.9 °F 62.6 °F 29.73 in NW 4.0 mph 8.0 mph 86% 0.00 in
07:54 66.6 °F 61.9 °F 29.73 in NW 3.0 mph 9.0 mph 85% 0.00 in
07:59 66.6 °F 61.9 °F 29.73 in NW 4.0 mph 9.0 mph 85% 0.00 in
08:04 66.5 °F 61.8 °F 29.74 in NW 4.0 mph 12.0 mph 85% 0.00 in
08:09 66.3 °F 61.7 °F 29.74 in NW 4.0 mph 12.0 mph 85% 0.00 in
08:14 66.4 °F 61.8 °F 29.74 in WNW 4.0 mph 8.0 mph 85% 0.00 in
08:19 66.6 °F 61.9 °F 29.74 in WNW 4.0 mph 8.0 mph 85% 0.00 in
08:24 66.4 °F 61.4 °F 29.75 in Calm   5.0 mph 84% 0.00 in
08:29 66.3 °F 61.3 °F 29.75 in NNW 3.0 mph 5.0 mph 84% 0.00 in
08:34 66.4 °F 61.4 °F 29.75 in NW 3.0 mph 8.0 mph 84% 0.00 in
08:39 66.2 °F 61.2 °F 29.76 in NNW 4.0 mph 8.0 mph 84% 0.00 in
08:44 66.3 °F 61.3 °F 29.76 in West 1.0 mph 10.0 mph 84% 0.00 in
08:49 66.3 °F 61.0 °F 29.76 in WNW 4.0 mph 9.0 mph 83% 0.00 in
08:54 66.2 °F 60.9 °F 29.76 in NW 3.0 mph 6.0 mph 83% 0.00 in
08:59 66.3 °F 61.0 °F 29.76 in NW 3.0 mph 7.0 mph 83% 0.00 in
09:04 66.8 °F 61.1 °F 29.77 in NW 3.0 mph 7.0 mph 82% 0.00 in
09:09 67.0 °F 61.0 °F 29.77 in NW 4.0 mph 10.0 mph 81% 0.00 in
09:14 67.0 °F 61.3 °F 29.77 in NW 4.0 mph 10.0 mph 82% 0.00 in
09:19 67.2 °F 61.2 °F 29.78 in WNW 4.0 mph 8.0 mph 81% 0.00 in
09:24 67.4 °F 61.0 °F 29.78 in NNW 6.0 mph 9.0 mph 80% 0.00 in
09:29 67.8 °F 61.0 °F 29.78 in NW 4.0 mph 10.0 mph 79% 0.00 in
09:34 68.9 °F 61.0 °F 29.79 in NW 3.0 mph 10.0 mph 76% 0.00 in
09:39 70.1 °F 61.8 °F 29.79 in WNW 5.0 mph 7.0 mph 75% 0.00 in
09:44 70.5 °F 61.8 °F 29.79 in NW 2.0 mph 6.0 mph 74% 0.00 in
09:49 69.7 °F 61.4 °F 29.79 in West 5.0 mph 6.0 mph 75% 0.00 in
09:54 68.9 °F 61.0 °F 29.79 in NW 4.0 mph 9.0 mph 76% 0.00 in
09:59 69.0 °F 60.7 °F 29.79 in WNW 4.0 mph 9.0 mph 75% 0.00 in
10:04 68.9 °F 61.0 °F 29.79 in WNW 4.0 mph 9.0 mph 76% 0.00 in
10:09 70.4 °F 61.3 °F 29.79 in North 3.0 mph 8.0 mph 73% 0.00 in
10:14 71.1 °F 61.2 °F 29.79 in NW 7.0 mph 7.0 mph 71% 0.00 in
10:19 70.2 °F 60.7 °F 29.79 in WNW 3.0 mph 9.0 mph 72% 0.00 in
10:24 70.8 °F 62.5 °F 29.79 in NNW 5.0 mph 7.0 mph 75% 0.00 in
10:29 71.9 °F 62.0 °F 29.79 in NW 4.0 mph 8.0 mph 71% 0.00 in
10:34 72.5 °F 61.3 °F 29.80 in NW 4.0 mph 12.0 mph 68% 0.00 in
10:39 71.3 °F 61.4 °F 29.80 in NW 4.0 mph 12.0 mph 71% 0.00 in
10:44 70.7 °F 60.8 °F 29.80 in NW 5.0 mph 11.0 mph 71% 0.00 in
10:49 69.9 °F 60.8 °F 29.80 in NNW 2.0 mph 11.0 mph 73% 0.00 in
10:54 69.5 °F 60.5 °F 29.80 in NW 8.0 mph 12.0 mph 73% 0.00 in
10:59 69.7 °F 60.7 °F 29.80 in West 2.0 mph 9.0 mph 73% 0.00 in
11:04 71.5 °F 61.6 °F 29.80 in NW 5.0 mph 7.0 mph 71% 0.00 in
11:09 71.3 °F 61.0 °F 29.81 in NNW 4.0 mph 11.0 mph 70% 0.00 in
11:14 70.1 °F 60.3 °F 29.81 in NNW 5.0 mph 12.0 mph 71% 0.00 in
11:19 71.1 °F 60.4 °F 29.81 in North 7.0 mph 8.0 mph 69% 0.00 in
11:24 72.1 °F 61.4 °F 29.81 in NW 4.0 mph 10.0 mph 69% 0.00 in
11:29 71.0 °F 60.3 °F 29.81 in WNW 5.0 mph 10.0 mph 69% 0.00 in
11:34 70.7 °F 60.0 °F 29.81 in WNW 5.0 mph 11.0 mph 69% 0.00 in
11:39 71.4 °F 60.7 °F 29.81 in NW 5.0 mph 11.0 mph 69% 0.00 in
11:44 72.7 °F 60.7 °F 29.81 in WNW 5.0 mph 12.0 mph 66% 0.00 in
11:49 72.3 °F 60.3 °F 29.81 in NW 7.0 mph 12.0 mph 66% 0.00 in
11:54 72.1 °F 60.5 °F 29.81 in WNW 5.0 mph 12.0 mph 67% 0.00 in
11:59 72.0 °F 60.9 °F 29.81 in NW 9.0 mph 11.0 mph 68% 0.00 in
12:04 72.4 °F 61.2 °F 29.81 in WNW 5.0 mph 11.0 mph 68% 0.00 in
12:09 72.8 °F 60.8 °F 29.81 in West 4.0 mph 7.0 mph 66% 0.00 in
12:14 72.6 °F 60.6 °F 29.81 in NW 4.0 mph 9.0 mph 66% 0.00 in
12:19 73.6 °F 59.8 °F 29.81 in WNW 5.0 mph 12.0 mph 62% 0.00 in
12:24 73.9 °F 60.5 °F 29.81 in NW 5.0 mph 10.0 mph 63% 0.00 in
12:29 73.8 °F 60.0 °F 29.81 in NW 5.0 mph 14.0 mph 62% 0.00 in
12:34 74.2 °F 59.4 °F 29.81 in NW 6.0 mph 14.0 mph 60% 0.00 in
12:39 75.0 °F 60.2 °F 29.81 in NW 6.0 mph 14.0 mph 60% 0.00 in
12:44 75.4 °F 60.1 °F 29.81 in WNW 5.0 mph 10.0 mph 59% 0.00 in
12:49 75.4 °F 59.6 °F 29.81 in NW 5.0 mph 10.0 mph 58% 0.00 in
12:54 74.9 °F 59.1 °F 29.81 in WNW 3.0 mph 9.0 mph 58% 0.00 in
12:59 75.3 °F 59.0 °F 29.81 in NW 7.0 mph 13.0 mph 57% 0.00 in
13:04 76.3 °F 59.4 °F 29.81 in WNW 2.0 mph 15.0 mph 56% 0.00 in
13:09 77.1 °F 61.7 °F 29.81 in West 4.0 mph 10.0 mph 59% 0.00 in
13:14 76.5 °F 59.6 °F 29.81 in WNW 4.0 mph 8.0 mph 56% 0.00 in
13:19 76.0 °F 58.7 °F 29.81 in West 4.0 mph 14.0 mph 55% 0.00 in
13:24 76.6 °F 60.2 °F 29.81 in NNW 8.0 mph 9.0 mph 57% 0.00 in
13:29 75.7 °F 58.4 °F 29.81 in WNW 6.0 mph 12.0 mph 55% 0.00 in
13:34 76.4 °F 59.0 °F 29.81 in WNW 6.0 mph 12.0 mph 55% 0.00 in
13:39 77.0 °F 60.1 °F 29.81 in NW 5.0 mph 11.0 mph 56% 0.00 in
13:44 77.3 °F 58.8 °F 29.81 in NW 4.0 mph 13.0 mph 53% 0.00 in
13:49 76.5 °F 58.6 °F 29.81 in WNW 11.0 mph 14.0 mph 54% 0.00 in
13:54 76.7 °F 58.3 °F 29.81 in WNW 6.0 mph 14.0 mph 53% 0.00 in
13:59 76.6 °F 60.2 °F 29.81 in WNW 5.0 mph 11.0 mph 57% 0.00 in
14:04 75.4 °F 58.1 °F 29.81 in NW 4.0 mph 9.0 mph 55% 0.00 in
14:09 75.6 °F 59.3 °F 29.81 in NW 5.0 mph 13.0 mph 57% 0.00 in
14:14 75.0 °F 58.2 °F 29.81 in NW 6.0 mph 14.0 mph 56% 0.00 in
14:19 74.7 °F 58.0 °F 29.81 in NW 6.0 mph 14.0 mph 56% 0.00 in
14:24 75.0 °F 58.2 °F 29.81 in WNW 4.0 mph 11.0 mph 56% 0.00 in
14:29 75.0 °F 57.7 °F 29.82 in West 9.0 mph 10.0 mph 55% 0.00 in
14:34 74.9 °F 58.1 °F 29.81 in West 9.0 mph 18.0 mph 56% 0.00 in
14:39 75.3 °F 57.5 °F 29.81 in WNW 3.0 mph 10.0 mph 54% 0.00 in
14:44 75.6 °F 58.3 °F 29.81 in West 1.0 mph 8.0 mph 55% 0.00 in
14:49 76.0 °F 57.6 °F 29.81 in WNW 8.0 mph 12.0 mph 53% 0.00 in
14:54 76.5 °F 57.6 °F 29.82 in West 7.0 mph 12.0 mph 52% 0.00 in
14:59 77.6 °F 56.9 °F 29.82 in WNW 7.0 mph 15.0 mph 49% 0.00 in
15:04 78.0 °F 57.9 °F 29.82 in WNW 7.0 mph 15.0 mph 50% 0.00 in
15:09 78.5 °F 56.6 °F 29.82 in WNW 7.0 mph 18.0 mph 47% 0.00 in
15:14 78.1 °F 56.2 °F 29.82 in WNW 8.0 mph 18.0 mph 47% 0.00 in
15:19 76.7 °F 55.5 °F 29.82 in NW 4.0 mph 12.0 mph 48% 0.00 in
15:24 77.0 °F 56.9 °F 29.82 in NW 5.0 mph 11.0 mph 50% 0.00 in
15:29 77.7 °F 56.4 °F 29.82 in NW 5.0 mph 16.0 mph 48% 0.00 in
15:34 78.0 °F 58.4 °F 29.82 in NW 6.0 mph 16.0 mph 51% 0.00 in
15:39 78.0 °F 56.1 °F 29.82 in NW 4.0 mph 21.0 mph 47% 0.00 in
15:44 78.2 °F 55.7 °F 29.82 in NW 3.0 mph 12.0 mph 46% 0.00 in
15:49 77.6 °F 55.8 °F 29.82 in NW 2.0 mph 12.0 mph 47% 0.00 in
15:54 77.1 °F 55.3 °F 29.82 in NNE 2.0 mph 13.0 mph 47% 0.00 in
15:59 78.0 °F 56.1 °F 29.82 in NNW 6.0 mph 13.0 mph 47% 0.00 in
16:04 76.0 °F 55.5 °F 29.83 in NNW 6.0 mph 10.0 mph 49% 0.00 in
16:09 76.0 °F 54.3 °F 29.83 in NNW 6.0 mph 12.0 mph 47% 0.00 in
16:14 76.6 °F 55.4 °F 29.83 in NW 6.0 mph 15.0 mph 48% 0.00 in
16:19 76.7 °F 54.4 °F 29.83 in NNW 5.0 mph 15.0 mph 46% 0.00 in
16:24 76.7 °F 53.1 °F 29.83 in NNW 3.0 mph 12.0 mph 44% 0.00 in
16:29 76.6 °F 51.1 °F 29.83 in NW 6.0 mph 13.0 mph 41% 0.00 in
16:34 76.5 °F 53.0 °F 29.84 in NNW 5.0 mph 10.0 mph 44% 0.00 in
16:39 76.1 °F 51.3 °F 29.84 in West 7.0 mph 13.0 mph 42% 0.00 in
16:44 77.1 °F 51.6 °F 29.84 in NNW 2.0 mph 12.0 mph 41% 0.00 in
16:49 77.1 °F 51.6 °F 29.84 in NNW 5.0 mph 15.0 mph 41% 0.00 in
16:54 76.6 °F 50.5 °F 29.84 in NNW 5.0 mph 15.0 mph 40% 0.00 in
16:59 76.2 °F 50.8 °F 29.84 in NNW 5.0 mph 13.0 mph 41% 0.00 in
17:04 76.4 °F 52.2 °F 29.84 in NNW 4.0 mph 11.0 mph 43% 0.00 in
17:09 76.3 °F 50.2 °F 29.84 in NNW 4.0 mph 12.0 mph 40% 0.00 in
17:14 75.6 °F 50.2 °F 29.84 in NNW 5.0 mph 13.0 mph 41% 0.00 in
17:19 75.7 °F 50.3 °F 29.84 in NNW 6.0 mph 15.0 mph 41% 0.00 in
17:24 75.4 °F 50.1 °F 29.84 in North 5.0 mph 12.0 mph 41% 0.00 in
17:29 75.4 °F 49.4 °F 29.84 in NNW 5.0 mph 11.0 mph 40% 0.00 in
17:34 75.6 °F 49.6 °F 29.84 in WNW 4.0 mph 12.0 mph 40% 0.00 in
17:39 75.8 °F 50.4 °F 29.84 in NNW 2.0 mph 9.0 mph 41% 0.00 in
17:44 75.8 °F 50.4 °F 29.84 in NNE 4.0 mph 12.0 mph 41% 0.00 in
17:49 75.2 °F 49.9 °F 29.85 in NW 9.0 mph 11.0 mph 41% 0.00 in
17:54 74.9 °F 48.9 °F 29.84 in NNW 5.0 mph 14.0 mph 40% 0.00 in
17:59 74.9 °F 50.3 °F 29.84 in NNW 5.0 mph 14.0 mph 42% 0.00 in
18:04 74.9 °F 49.6 °F 29.84 in NNW 5.0 mph 10.0 mph 41% 0.00 in
18:09 74.9 °F 48.9 °F 29.84 in NNW 4.0 mph 9.0 mph 40% 0.00 in
18:14 74.9 °F 49.6 °F 29.84 in NNW 4.0 mph 9.0 mph 41% 0.00 in
18:19 74.3 °F 49.1 °F 29.84 in WNW 2.0 mph 10.0 mph 41% 0.00 in
18:24 73.7 °F 49.8 °F 29.84 in NW 4.0 mph 10.0 mph 43% 0.00 in
18:29 74.3 °F 49.1 °F 29.84 in NW 4.0 mph 11.0 mph 41% 0.00 in
18:34 74.3 °F 49.7 °F 29.84 in NNE 4.0 mph 9.0 mph 42% 0.00 in
18:39 74.0 °F 48.8 °F 29.85 in WNW 2.0 mph 11.0 mph 41% 0.00 in
18:44 74.2 °F 50.3 °F 29.85 in WNW 2.0 mph 9.0 mph 43% 0.00 in
18:49 74.1 °F 48.9 °F 29.84 in NW 7.0 mph 9.0 mph 41% 0.00 in
18:54 74.0 °F 49.4 °F 29.85 in NW 4.0 mph 9.0 mph 42% 0.00 in
18:59 74.0 °F 49.4 °F 29.85 in NW 5.0 mph 9.0 mph 42% 0.00 in
19:04 74.1 °F 48.9 °F 29.85 in WNW 3.0 mph 9.0 mph 41% 0.00 in
19:09 74.1 °F 48.2 °F 29.85 in NW 1.0 mph 6.0 mph 40% 0.00 in
19:14 74.2 °F 50.3 °F 29.85 in NW 3.0 mph 5.0 mph 43% 0.00 in
19:19 74.1 °F 50.2 °F 29.85 in WNW 2.0 mph 6.0 mph 43% 0.00 in
19:24 74.0 °F 50.1 °F 29.85 in WNW 3.0 mph 8.0 mph 43% 0.00 in
19:29 73.8 °F 49.3 °F 29.85 in WNW 3.0 mph 8.0 mph 42% 0.00 in
19:34 73.6 °F 49.7 °F 29.85 in WNW 4.0 mph 10.0 mph 43% 0.00 in
19:39 73.5 °F 49.6 °F 29.85 in WNW 4.0 mph 10.0 mph 43% 0.00 in
19:44 73.2 °F 49.4 °F 29.85 in NW 3.0 mph 7.0 mph 43% 0.00 in
19:49 73.0 °F 49.2 °F 29.86 in NW 3.0 mph 8.0 mph 43% 0.00 in
19:54 72.8 °F 49.0 °F 29.86 in NNW 5.0 mph 8.0 mph 43% 0.00 in
19:59 72.6 °F 49.4 °F 29.86 in WNW 3.0 mph 7.0 mph 44% 0.00 in
20:04 72.4 °F 49.3 °F 29.86 in WNW 3.0 mph 8.0 mph 44% 0.00 in
20:09 72.1 °F 49.6 °F 29.86 in WNW 1.0 mph 7.0 mph 45% 0.00 in
20:14 71.9 °F 49.4 °F 29.86 in West 2.0 mph 5.0 mph 45% 0.00 in
20:19 72.0 °F 50.1 °F 29.86 in NW 3.0 mph 5.0 mph 46% 0.00 in
20:24 72.0 °F 50.1 °F 29.86 in WNW 3.0 mph 6.0 mph 46% 0.00 in
20:29 71.8 °F 49.3 °F 29.86 in NW 3.0 mph 6.0 mph 45% 0.00 in
20:34 71.7 °F 49.8 °F 29.86 in NW 2.0 mph 6.0 mph 46% 0.00 in
20:39 71.5 °F 49.6 °F 29.86 in Calm   3.0 mph 46% 0.00 in
20:44 71.2 °F 50.5 °F 29.86 in WNW 4.0 mph 7.0 mph 48% 0.00 in
20:49 71.2 °F 49.9 °F 29.86 in WNW 3.0 mph 11.0 mph 47% 0.00 in
20:54 71.3 °F 49.4 °F 29.86 in NW 5.0 mph 12.0 mph 46% 0.00 in
20:59 71.3 °F 50.0 °F 29.86 in WNW 5.0 mph 12.0 mph 47% 0.00 in
21:04 71.1 °F 50.4 °F 29.87 in WNW 5.0 mph 11.0 mph 48% 0.00 in
21:09 70.6 °F 50.5 °F 29.87 in NW 1.0 mph 5.0 mph 49% 0.00 in
21:14 70.2 °F 50.7 °F 29.88 in Calm   4.0 mph 50% 0.00 in
21:19 69.8 °F 50.3 °F 29.88 in West 1.0 mph 4.0 mph 50% 0.00 in
21:24 69.5 °F 50.0 °F 29.88 in West 2.0 mph 4.0 mph 50% 0.00 in
21:29 69.3 °F 49.9 °F 29.89 in WNW 1.0 mph 5.0 mph 50% 0.00 in
21:34 68.8 °F 49.9 °F 29.89 in NW 1.0 mph 5.0 mph 51% 0.00 in
21:39 68.4 °F 50.1 °F 29.89 in NNW 1.0 mph 3.0 mph 52% 0.00 in
21:44 68.4 °F 50.1 °F 29.89 in NW 3.0 mph 5.0 mph 52% 0.00 in
21:49 68.4 °F 50.1 °F 29.89 in NW 1.0 mph 4.0 mph 52% 0.00 in
21:54 68.2 °F 49.9 °F 29.90 in NW 1.0 mph 4.0 mph 52% 0.00 in
21:59 68.0 °F 49.7 °F 29.90 in NW 1.0 mph 3.0 mph 52% 0.00 in
22:04 67.6 °F 50.4 °F 29.90 in Calm   2.0 mph 54% 0.00 in
22:09 67.3 °F 50.1 °F 29.90 in NW 1.0 mph 3.0 mph 54% 0.00 in
22:14 67.4 °F 50.2 °F 29.90 in NW 1.0 mph 4.0 mph 54% 0.00 in
22:19 67.3 °F 50.1 °F 29.91 in NW 1.0 mph 3.0 mph 54% 0.00 in
22:24 67.3 °F 50.1 °F 29.91 in NNW 1.0 mph 4.0 mph 54% 0.00 in
22:29 67.0 °F 49.8 °F 29.91 in Calm   3.0 mph 54% 0.00 in
22:34 66.7 °F 49.5 °F 29.91 in WNW 2.0 mph 3.0 mph 54% 0.00 in
22:39 66.5 °F 49.8 °F 29.91 in NW 3.0 mph 5.0 mph 55% 0.00 in
22:44 66.3 °F 49.6 °F 29.91 in Calm   5.0 mph 55% 0.00 in
22:49 66.2 °F 49.6 °F 29.91 in WSW 5.0 mph 6.0 mph 55% 0.00 in
22:54 66.2 °F 49.6 °F 29.91 in WNW 2.0 mph 6.0 mph 55% 0.00 in
22:59 66.1 °F 49.5 °F 29.91 in WNW 3.0 mph 6.0 mph 55% 0.00 in
23:04 66.0 °F 49.4 °F 29.91 in WNW 3.0 mph 6.0 mph 55% 0.00 in
23:09 65.9 °F 49.3 °F 29.91 in WNW 3.0 mph 7.0 mph 55% 0.00 in
23:14 65.9 °F 49.8 °F 29.92 in WNW 3.0 mph 7.0 mph 56% 0.00 in
23:19 65.7 °F 49.6 °F 29.92 in WNW 3.0 mph 7.0 mph 56% 0.00 in
23:24 65.5 °F 49.9 °F 29.91 in WNW 3.0 mph 7.0 mph 57% 0.00 in
23:29 65.3 °F 50.1 °F 29.92 in WNW 5.0 mph 5.0 mph 58% 0.00 in
23:34 65.0 °F 49.9 °F 29.92 in NW 2.0 mph 5.0 mph 58% 0.00 in
23:39 64.9 °F 49.8 °F 29.92 in WNW 4.0 mph 7.0 mph 58% 0.00 in
23:44 65.0 °F 50.3 °F 29.92 in WNW 3.0 mph 6.0 mph 59% 0.00 in
23:49 64.6 °F 50.4 °F 29.92 in Calm   4.0 mph 60% 0.00 in
23:54 64.3 °F 50.1 °F 29.92 in WNW 2.0 mph 4.0 mph 60% 0.00 in
23:59 64.0 °F 49.8 °F 29.92 in Calm   4.0 mph 60% 0.00 in
Buffalo, New York, USA
Compliments of Weather Underground - 2.5 mb